This is the latest recevied weather packets stored in our database for station/object DL8TF-13. If no packets are shown the sender has not sent any weather packets the latest 10 day(s).
| Time | Temp. | Humidity | Pressure | Rain* | Wind** | Luminosity | Snow |
|---|---|---|---|---|---|---|---|
| 1777644812 | 31.67° C | 12% | 991 hPa | - | - | - | - |
| 1777644212 | 33.33° C | 10% | 992 hPa | - | - | - | - |
| 1777643612 | 37.22° C | 8% | 992 hPa | - | - | - | - |
| 1777643012 | 37.22° C | 7% | 992 hPa | - | - | - | - |
| 1777642412 | 37.22° C | 8% | 992 hPa | - | - | - | - |
| 1777641812 | 37.78° C | 8% | 992 hPa | - | - | - | - |
| 1777641212 | 37.22° C | 7% | 992 hPa | - | - | - | - |
| 1777638812 | 37.78° C | 8% | 993 hPa | - | - | - | - |
| 1777638212 | 35.56° C | 9% | 993 hPa | - | - | - | - |
| 1777637611 | 34.44° C | 9% | 993 hPa | - | - | - | - |
| 1777637011 | 35° C | 9% | 993 hPa | - | - | - | - |
| 1777635811 | 32.78° C | 10% | 993 hPa | - | - | - | - |
| 1777635211 | 31.11° C | 11% | 993 hPa | - | - | - | - |
| 1777634611 | 26.11° C | 15% | 993 hPa | - | - | - | - |
| 1777634011 | 21.11° C | 20% | 993 hPa | - | - | - | - |
| 1777633411 | 20.56° C | 20% | 993 hPa | - | - | - | - |
| 1777632811 | 20° C | 21% | 993 hPa | - | - | - | - |
| 1777632211 | 19.44° C | 23% | 994 hPa | - | - | - | - |
| 1777631611 | 18.89° C | 21% | 994 hPa | - | - | - | - |
| 1777631011 | 18.33° C | 22% | 994 hPa | - | - | - | - |
| 1777630410 | 18.33° C | 23% | 994 hPa | - | - | - | - |
| 1777629810 | 17.78° C | 24% | 994 hPa | - | - | - | - |
| 1777629210 | 17.22° C | 24% | 994 hPa | - | - | - | - |
| 1777628610 | 17.22° C | 22% | 994 hPa | - | - | - | - |
| 1777628009 | 17.22° C | 24% | 994 hPa | - | - | - | - |
* Rain since midnight (hover to see other rain measurements)
** Current wind speed in m/s (hover to see current wind gust speed)